createdAt,value
2019-06-10T00:01:02.832Z,8.23
2019-06-10T00:03:31.846Z,5.13
2019-06-10T00:06:03.491Z,4.17
2019-06-10T00:08:31.134Z,8.20
2019-06-10T00:11:03.366Z,6.17
2019-06-10T00:13:31.405Z,6.07
2019-06-10T00:16:02.673Z,9.27
2019-06-10T00:18:41.436Z,7.47
2019-06-10T00:21:03.269Z,9.30
2019-06-10T00:23:31.990Z,9.83
2019-06-10T00:26:04.179Z,4.90
2019-06-10T00:28:31.219Z,6.93
2019-06-10T00:31:02.094Z,15.80
2019-06-10T00:33:30.873Z,3.97
2019-06-10T00:36:05.140Z,6.20
2019-06-10T00:38:31.985Z,10.53
2019-06-10T00:41:03.935Z,9.67
2019-06-10T00:43:31.774Z,4.80
2019-06-10T00:46:02.756Z,6.10
2019-06-10T00:48:32.393Z,7.23
2019-06-10T00:51:02.375Z,10.03
2019-06-10T00:53:31.687Z,6.80
2019-06-10T00:56:03.257Z,11.30
2019-06-10T00:58:31.994Z,15.53
2019-06-10T01:01:02.484Z,6.60
2019-06-10T01:03:31.527Z,12.70
2019-06-10T01:06:02.573Z,6.90
2019-06-10T01:08:31.573Z,4.83
2019-06-10T01:11:09.256Z,5.23
2019-06-10T01:13:30.935Z,10.13
2019-06-10T01:16:01.653Z,14.73
2019-06-10T01:18:35.467Z,6.40
2019-06-10T01:21:01.959Z,11.73
2019-06-10T01:23:31.066Z,6.20
2019-06-10T01:26:01.501Z,4.87
2019-06-10T01:28:31.440Z,5.50
2019-06-10T01:31:01.023Z,6.10
2019-06-10T01:33:31.676Z,8.73
2019-06-10T01:36:00.730Z,10.43
2019-06-10T01:38:31.534Z,7.97
2019-06-10T01:41:01.503Z,7.63
2019-06-10T01:43:32.054Z,8.17
2019-06-10T01:46:01.592Z,4.70
2019-06-10T01:48:43.684Z,6.37
2019-06-10T01:51:01.829Z,5.23
2019-06-10T01:53:31.399Z,5.50
2019-06-10T01:56:01.004Z,4.73
2019-06-10T01:58:31.609Z,9.93
2019-06-10T02:01:01.955Z,5.17
2019-06-10T02:03:31.445Z,5.07
2019-06-10T02:06:01.349Z,9.80
2019-06-10T02:08:31.703Z,6.27
2019-06-10T02:11:01.208Z,6.10
2019-06-10T02:13:33.043Z,6.20
2019-06-10T02:16:02.612Z,5.40
2019-06-10T02:18:31.996Z,6.30
2019-06-10T02:21:01.285Z,7.60
2019-06-10T02:23:31.453Z,6.87
2019-06-10T02:26:01.661Z,14.10
2019-06-10T02:28:31.845Z,7.50
2019-06-10T02:31:03.463Z,8.03
2019-06-10T02:33:36.238Z,9.60
2019-06-10T02:36:04.029Z,7.23
2019-06-10T02:38:35.400Z,5.57
2019-06-10T02:41:04.519Z,6.80
2019-06-10T02:43:36.207Z,6.73
2019-06-10T02:46:04.215Z,11.83
2019-06-10T02:48:34.906Z,6.53
2019-06-10T02:51:05.550Z,7.17
2019-06-10T02:53:36.271Z,7.43
2019-06-10T02:56:05.689Z,7.13
2019-06-10T02:58:38.898Z,9.10
2019-06-10T03:01:04.738Z,12.17
2019-06-10T03:03:42.570Z,12.17
2019-06-10T03:06:06.655Z,7.30
2019-06-10T03:08:36.260Z,8.80
2019-06-10T03:11:04.103Z,10.33
2019-06-10T03:13:33.150Z,6.60
2019-06-10T03:16:09.347Z,7.27
2019-06-10T03:18:37.899Z,8.53
2019-06-10T03:21:06.339Z,6.27
2019-06-10T03:23:34.826Z,5.90
2019-06-10T03:26:04.279Z,5.80
2019-06-10T03:28:32.986Z,9.70
2019-06-10T03:31:05.883Z,9.27
2019-06-10T03:33:40.688Z,8.70
2019-06-10T03:36:03.354Z,8.03
2019-06-10T03:38:32.693Z,5.80
2019-06-10T03:41:03.199Z,6.03
2019-06-10T03:43:33.024Z,8.83
2019-06-10T03:46:03.135Z,6.80
2019-06-10T03:48:33.147Z,8.80
2019-06-10T03:51:03.387Z,5.03
2019-06-10T03:53:33.718Z,7.40
2019-06-10T03:56:02.493Z,7.00
2019-06-10T03:58:32.789Z,7.97
2019-06-10T04:01:03.264Z,15.03
2019-06-10T04:03:33.975Z,9.67
2019-06-10T04:06:02.434Z,6.80
2019-06-10T04:08:32.902Z,7.13
2019-06-10T04:11:02.844Z,9.27
2019-06-10T04:13:33.794Z,6.30
2019-06-10T04:16:02.561Z,11.23
2019-06-10T04:18:32.702Z,12.80
2019-06-10T04:21:02.325Z,10.03
2019-06-10T04:23:33.226Z,7.03
2019-06-10T04:26:02.331Z,9.27
2019-06-10T04:28:33.519Z,11.23
2019-06-10T04:31:02.538Z,7.23
2019-06-10T04:33:32.942Z,9.13
2019-06-10T04:36:02.948Z,10.13
2019-06-10T04:38:32.683Z,8.73
2019-06-10T04:41:03.334Z,9.73
2019-06-10T04:43:32.596Z,16.17
2019-06-10T04:46:02.331Z,21.37
2019-06-10T04:48:32.639Z,12.93
2019-06-10T04:51:02.677Z,15.30
2019-06-10T04:53:32.964Z,8.60
2019-06-10T04:56:02.926Z,18.00
2019-06-10T04:58:33.487Z,16.60
2019-06-10T05:01:03.048Z,9.20
2019-06-10T05:03:32.907Z,17.00
2019-06-10T05:06:03.300Z,8.30
2019-06-10T05:08:33.731Z,13.60
2019-06-10T05:11:03.739Z,10.13
2019-06-10T05:13:33.610Z,13.33
2019-06-10T05:16:03.707Z,18.23
2019-06-10T05:18:33.139Z,10.93
2019-06-10T05:21:02.758Z,14.80
2019-06-10T05:23:33.018Z,7.80
2019-06-10T05:26:02.826Z,14.17
2019-06-10T05:28:33.879Z,21.70
2019-06-10T05:31:02.751Z,13.97
2019-06-10T05:33:33.722Z,9.67
2019-06-10T05:36:02.713Z,14.93
2019-06-10T05:38:35.097Z,10.33
2019-06-10T05:41:02.906Z,9.90
2019-06-10T05:43:34.255Z,8.60
2019-06-10T05:46:02.827Z,14.70
2019-06-10T05:48:33.609Z,10.37
2019-06-10T05:51:06.167Z,13.07
2019-06-10T05:53:34.986Z,12.33
2019-06-10T05:56:02.802Z,16.30
2019-06-10T05:58:34.087Z,18.73
2019-06-10T06:01:02.817Z,24.10
2019-06-10T06:03:36.294Z,10.27
2019-06-10T06:06:03.260Z,15.30
2019-06-10T06:08:33.997Z,13.17
2019-06-10T06:11:03.289Z,12.83
2019-06-10T06:13:34.108Z,14.47
2019-06-10T06:16:03.336Z,15.10
2019-06-10T06:18:34.663Z,9.63
2019-06-10T06:21:19.377Z,18.63
2019-06-10T06:23:33.888Z,8.97
2019-06-10T06:26:03.875Z,12.47
2019-06-10T06:28:34.614Z,17.90
2019-06-10T06:31:03.474Z,14.17
2019-06-10T06:33:34.514Z,18.00
2019-06-10T06:36:03.426Z,19.50
2019-06-10T06:38:34.937Z,14.30
2019-06-10T06:41:03.216Z,13.93
2019-06-10T06:43:37.022Z,10.63
2019-06-10T06:46:02.600Z,12.20
2019-06-10T06:48:36.660Z,18.60
2019-06-10T06:51:07.400Z,13.87
2019-06-10T06:53:39.590Z,8.63
2019-06-10T06:56:03.509Z,10.50
2019-06-10T06:58:35.222Z,17.93
2019-06-10T07:01:10.190Z,16.03
2019-06-10T07:03:35.352Z,9.83
2019-06-10T07:06:03.386Z,9.37
2019-06-10T07:08:36.122Z,19.40
2019-06-10T07:11:04.201Z,10.97
2019-06-10T07:13:36.915Z,10.03
2019-06-10T07:16:04.270Z,11.17
2019-06-10T07:18:38.789Z,11.60
2019-06-10T07:21:03.034Z,17.37
2019-06-10T07:23:34.497Z,11.63
2019-06-10T07:26:02.567Z,10.43
2019-06-10T07:28:33.997Z,10.93
2019-06-10T07:31:03.269Z,11.07
2019-06-10T07:33:34.757Z,10.27
2019-06-10T07:36:03.254Z,9.80
2019-06-10T07:38:33.836Z,9.90
2019-06-10T07:41:02.892Z,14.07
2019-06-10T07:43:32.855Z,11.13
2019-06-10T07:46:03.431Z,11.40
2019-06-10T07:48:33.519Z,11.67
2019-06-10T07:51:02.993Z,12.30
2019-06-10T07:53:33.223Z,10.83
2019-06-10T07:56:03.281Z,14.10
2019-06-10T07:58:34.968Z,15.70
2019-06-10T08:01:02.899Z,24.83
2019-06-10T08:03:33.338Z,9.10
2019-06-10T08:06:03.288Z,10.17
2019-06-10T08:08:32.974Z,10.43
2019-06-10T08:11:03.383Z,12.93
2019-06-10T08:13:32.458Z,13.37
2019-06-10T08:16:02.810Z,13.70
2019-06-10T08:18:38.171Z,15.83
2019-06-10T08:21:03.134Z,11.03
2019-06-10T08:23:32.886Z,12.83
2019-06-10T08:26:03.527Z,11.20
2019-06-10T08:28:33.343Z,10.00
2019-06-10T08:31:03.624Z,10.90
2019-06-10T08:33:33.193Z,13.67
2019-06-10T08:36:04.090Z,11.90
2019-06-10T08:38:32.940Z,16.97
2019-06-10T08:41:03.149Z,10.57
2019-06-10T08:43:33.065Z,14.63
2019-06-10T08:46:02.585Z,11.07
2019-06-10T08:48:32.986Z,13.43
2019-06-10T08:51:03.882Z,17.03
2019-06-10T08:53:33.015Z,9.83
2019-06-10T08:56:02.882Z,15.70
2019-06-10T08:58:33.036Z,11.40
2019-06-10T09:01:02.741Z,12.00
2019-06-10T09:03:32.450Z,13.80
2019-06-10T09:06:02.761Z,17.40
2019-06-10T09:08:32.647Z,12.70
2019-06-10T09:11:02.290Z,11.30
2019-06-10T09:13:33.378Z,18.30
2019-06-10T09:16:12.910Z,13.47
2019-06-10T09:18:33.654Z,18.33
2019-06-10T09:21:02.417Z,17.93
2019-06-10T09:23:33.104Z,20.43
2019-06-10T09:26:03.561Z,15.60
2019-06-10T09:28:32.885Z,13.50
2019-06-10T09:31:03.977Z,15.57
2019-06-10T09:33:33.120Z,22.83
2019-06-10T09:36:03.292Z,12.93
2019-06-10T09:38:33.454Z,17.83
2019-06-10T09:41:05.853Z,14.10
2019-06-10T09:43:33.244Z,12.37
2019-06-10T09:46:03.639Z,14.47
2019-06-10T09:48:33.569Z,15.40
2019-06-10T09:51:02.797Z,18.43
2019-06-10T09:53:41.408Z,17.17
2019-06-10T09:56:04.221Z,14.13
2019-06-10T09:58:32.900Z,25.03
2019-06-10T10:01:03.263Z,25.83
2019-06-10T10:03:33.592Z,13.07
2019-06-10T10:06:11.738Z,15.77
2019-06-10T10:08:34.167Z,16.80
2019-06-10T10:11:03.239Z,20.60
2019-06-10T10:13:35.306Z,17.63
2019-06-10T10:16:02.697Z,20.90
2019-06-10T10:18:33.454Z,18.43
2019-06-10T10:21:03.806Z,21.77
2019-06-10T10:23:49.608Z,18.70
2019-06-10T10:26:03.412Z,18.60
2019-06-10T10:28:33.470Z,13.63
2019-06-10T10:31:03.855Z,19.00
2019-06-10T10:33:33.269Z,13.73
2019-06-10T10:36:02.785Z,25.13
2019-06-10T10:38:34.410Z,13.60
2019-06-10T10:41:04.467Z,15.67
2019-06-10T10:43:37.040Z,18.70
2019-06-10T10:46:05.619Z,18.33
2019-06-10T10:48:33.557Z,13.53
2019-06-10T10:51:03.522Z,24.53
2019-06-10T10:53:32.897Z,15.07
2019-06-10T10:56:02.453Z,15.47
2019-06-10T10:58:32.992Z,13.50
2019-06-10T11:01:04.006Z,15.40
2019-06-10T11:03:33.603Z,18.73
2019-06-10T11:06:02.722Z,16.93
2019-06-10T11:08:33.334Z,16.20
2019-06-10T11:11:05.231Z,21.13
2019-06-10T11:13:35.316Z,12.63
2019-06-10T11:16:03.809Z,15.40
2019-06-10T11:18:33.980Z,12.40
2019-06-10T11:21:05.006Z,14.83
2019-06-10T11:23:34.398Z,17.00
2019-06-10T11:26:03.349Z,15.67
2019-06-10T11:28:32.289Z,12.80
2019-06-10T11:31:03.291Z,14.47
2019-06-10T11:33:33.027Z,15.97
2019-06-10T11:36:02.811Z,12.77
2019-06-10T11:38:32.791Z,19.43
2019-06-10T11:41:01.842Z,13.37
2019-06-10T11:43:32.822Z,17.90
2019-06-10T11:46:06.422Z,18.10
2019-06-10T11:48:32.740Z,19.80
2019-06-10T11:51:04.269Z,27.63
2019-06-10T11:53:34.158Z,22.30
2019-06-10T11:56:02.499Z,25.53
2019-06-10T11:58:33.343Z,25.50
2019-06-10T12:01:03.942Z,24.70
2019-06-10T12:03:31.773Z,26.73
2019-06-10T12:06:02.028Z,25.07
2019-06-10T12:08:32.893Z,23.57
2019-06-10T12:11:02.505Z,19.60
2019-06-10T12:13:34.263Z,21.63
2019-06-10T12:18:33.309Z,19.53
2019-06-10T12:21:03.815Z,21.27
2019-06-10T12:23:33.737Z,22.47
2019-06-10T12:26:04.822Z,21.37
2019-06-10T12:28:32.830Z,15.17
2019-06-10T12:31:06.056Z,20.33
2019-06-10T12:33:33.689Z,15.73
2019-06-10T12:36:06.192Z,22.80
2019-06-10T12:38:33.474Z,20.50
2019-06-10T12:41:07.962Z,19.70
2019-06-10T12:43:32.715Z,16.97
2019-06-10T12:46:02.074Z,19.07
2019-06-10T12:48:34.098Z,19.60
2019-06-10T12:51:07.957Z,17.80
2019-06-10T12:53:32.653Z,25.27
2019-06-10T12:56:07.286Z,22.17
2019-06-10T12:58:33.357Z,27.50
2019-06-10T13:01:04.500Z,19.33
2019-06-10T13:03:33.550Z,22.23
2019-06-10T13:06:07.231Z,21.60
2019-06-10T13:08:35.431Z,22.00
2019-06-10T13:11:04.386Z,21.20
2019-06-10T13:13:32.990Z,22.70
2019-06-10T13:16:06.705Z,22.43
2019-06-10T13:18:31.829Z,22.90
2019-06-10T13:21:04.303Z,22.57
2019-06-10T13:23:32.610Z,18.77
2019-06-10T13:26:07.071Z,21.43
2019-06-10T13:28:32.479Z,24.47
2019-06-10T13:31:04.366Z,22.20
2019-06-10T13:33:33.113Z,17.03
2019-06-10T13:36:04.708Z,21.00
2019-06-10T13:38:33.239Z,22.83
2019-06-10T13:41:02.851Z,16.83
2019-06-10T13:43:33.842Z,22.33
2019-06-10T13:46:05.664Z,16.30
2019-06-10T13:48:33.160Z,16.97
2019-06-10T13:51:07.223Z,18.27
2019-06-10T13:53:31.914Z,23.53
2019-06-10T13:56:19.021Z,19.30
2019-06-10T13:58:30.659Z,18.00
2019-06-10T14:00:59.828Z,18.30
2019-06-10T14:03:28.448Z,16.43
2019-06-10T14:06:01.301Z,20.27
2019-06-10T14:08:27.231Z,16.27
2019-06-10T14:10:55.736Z,22.13
2019-06-10T14:13:26.274Z,15.90
2019-06-10T14:15:54.834Z,14.90
2019-06-10T14:18:23.449Z,16.50
2019-06-10T14:20:53.172Z,16.20
2019-06-10T14:23:22.286Z,16.27
2019-06-10T14:25:52.420Z,19.27
2019-06-10T14:28:38.678Z,22.37
2019-06-10T14:30:53.917Z,35.07
2019-06-10T14:33:23.258Z,20.87
2019-06-10T14:35:53.446Z,23.43
2019-06-10T14:38:22.442Z,15.70
2019-06-10T14:40:52.622Z,17.23
2019-06-10T14:43:23.116Z,18.73
2019-06-10T14:45:53.440Z,18.43
2019-06-10T14:48:23.386Z,15.07
2019-06-10T14:50:52.253Z,25.17
2019-06-10T14:53:23.185Z,18.73
2019-06-10T14:55:53.225Z,22.10
2019-06-10T14:58:23.011Z,16.00
2019-06-10T15:00:54.239Z,19.63
2019-06-10T15:03:22.278Z,21.40
2019-06-10T15:05:52.907Z,20.00
2019-06-10T15:08:23.071Z,23.70
2019-06-10T15:10:52.796Z,23.83
2019-06-10T15:13:23.440Z,28.40
2019-06-10T15:15:53.338Z,19.90
2019-06-10T15:18:23.590Z,16.83
2019-06-10T15:20:53.400Z,15.30
2019-06-10T15:23:23.467Z,15.07
2019-06-10T15:25:56.019Z,15.47
2019-06-10T15:28:23.480Z,19.30
2019-06-10T15:30:52.764Z,18.70
2019-06-10T15:33:23.490Z,17.23
2019-06-10T15:35:53.383Z,26.10
2019-06-10T15:38:23.143Z,16.30
2019-06-10T15:40:53.184Z,22.20
2019-06-10T15:43:23.368Z,26.93
2019-06-10T15:45:52.877Z,15.17
2019-06-10T15:48:25.057Z,21.87
2019-06-10T15:50:52.207Z,20.03
2019-06-10T15:53:25.326Z,18.00
2019-06-10T15:56:10.355Z,16.57
2019-06-10T15:58:24.241Z,14.67
2019-06-10T16:00:53.439Z,18.93
2019-06-10T16:03:25.388Z,15.83
2019-06-10T16:05:52.890Z,14.67
2019-06-10T16:08:22.484Z,17.17
2019-06-10T16:10:52.565Z,16.50
2019-06-10T16:13:25.399Z,17.63
2019-06-10T16:15:53.303Z,18.43
2019-06-10T16:18:25.952Z,16.17
2019-06-10T16:20:53.027Z,17.40
2019-06-10T16:23:24.511Z,14.70
2019-06-10T16:25:53.502Z,20.03
2019-06-10T16:28:23.428Z,17.93
2019-06-10T16:30:53.840Z,13.70
2019-06-10T16:33:27.319Z,23.47
2019-06-10T16:35:52.836Z,15.83
2019-06-10T16:38:23.775Z,16.90
2019-06-10T16:40:53.698Z,18.10
2019-06-10T16:43:24.156Z,19.73
2019-06-10T16:45:52.524Z,14.37
2019-06-10T16:48:21.532Z,17.00
2019-06-10T16:50:53.981Z,17.50
2019-06-10T16:53:27.876Z,20.50
2019-06-10T16:55:52.935Z,18.10
2019-06-10T16:58:25.371Z,15.20
2019-06-10T17:00:51.579Z,18.33
2019-06-10T17:03:22.802Z,13.87
2019-06-10T17:05:50.297Z,19.60
2019-06-10T17:08:20.067Z,16.43
2019-06-10T17:10:49.064Z,13.50
2019-06-10T17:13:19.141Z,15.10
2019-06-10T17:15:47.630Z,19.87
2019-06-10T17:18:16.108Z,14.30
2019-06-10T17:20:44.838Z,16.50
2019-06-10T17:23:26.931Z,17.97
2019-06-10T17:25:56.436Z,20.10
2019-06-10T17:28:30.661Z,20.10
2019-06-10T17:30:57.365Z,24.17
2019-06-10T17:33:27.796Z,13.53
2019-06-10T17:35:56.090Z,13.20
2019-06-10T17:38:24.778Z,20.33
2019-06-10T17:40:53.363Z,21.77
2019-06-10T17:43:23.241Z,16.40
2019-06-10T17:45:52.792Z,17.50
2019-06-10T17:48:22.804Z,28.33
2019-06-10T17:50:52.628Z,14.77
2019-06-10T17:53:22.336Z,23.03
2019-06-10T17:55:51.063Z,23.10
2019-06-10T17:58:31.831Z,22.87
2019-06-10T18:00:49.860Z,20.83
2019-06-10T18:03:18.383Z,32.93
2019-06-10T18:05:46.866Z,15.13
2019-06-10T18:08:15.350Z,17.37
2019-06-10T18:10:43.931Z,25.47
2019-06-10T18:13:16.295Z,14.60
2019-06-10T18:15:43.028Z,28.80
2019-06-10T18:18:13.017Z,15.03
2019-06-10T18:20:43.461Z,20.10
2019-06-10T18:23:13.526Z,20.60
2019-06-10T18:25:43.228Z,14.93
2019-06-10T18:28:12.202Z,15.40
2019-06-10T18:30:43.285Z,19.10
2019-06-10T18:33:11.063Z,17.43
2019-06-10T18:35:39.558Z,16.73
2019-06-10T18:38:08.047Z,12.77
2019-06-10T18:40:36.578Z,22.37
2019-06-10T18:43:05.503Z,18.10
2019-06-10T18:45:36.811Z,15.63
2019-06-10T18:48:04.471Z,17.77
2019-06-10T18:50:35.930Z,18.77
2019-06-10T18:53:04.221Z,23.00
2019-06-10T18:55:35.926Z,16.83
2019-06-10T18:58:03.209Z,17.57
2019-06-10T19:00:52.154Z,15.10
2019-06-10T19:03:10.281Z,18.87
2019-06-10T19:05:33.612Z,18.10
2019-06-10T19:08:02.622Z,25.10
2019-06-10T19:10:33.884Z,15.63
2019-06-10T19:13:02.534Z,23.60
2019-06-10T19:15:31.785Z,14.97
2019-06-10T19:18:02.987Z,20.20
2019-06-10T19:20:33.600Z,13.00
2019-06-10T19:23:02.447Z,20.40
2019-06-10T19:25:33.832Z,16.60
2019-06-10T19:28:01.839Z,20.07
2019-06-10T19:30:33.529Z,17.30
2019-06-10T19:33:02.526Z,17.20
2019-06-10T19:35:33.528Z,16.57
2019-06-10T19:38:02.228Z,16.93
2019-06-10T19:40:33.459Z,21.20
2019-06-10T19:43:03.300Z,23.87
2019-06-10T19:45:32.184Z,14.97
2019-06-10T19:48:03.300Z,29.50
2019-06-10T19:50:34.543Z,24.07
2019-06-10T19:53:03.053Z,35.27
2019-06-10T19:55:32.460Z,28.03
2019-06-10T19:58:03.706Z,27.60
2019-06-10T20:00:33.132Z,20.73
2019-06-10T20:03:02.948Z,20.67
2019-06-10T20:05:32.670Z,17.47
2019-06-10T20:08:02.978Z,28.57
2019-06-10T20:10:32.399Z,20.17
2019-06-10T20:13:03.766Z,13.30
2019-06-10T20:15:32.810Z,25.30
2019-06-10T20:18:03.423Z,20.47
2019-06-10T20:20:33.327Z,21.60
2019-06-10T20:23:03.095Z,20.37
2019-06-10T20:25:32.899Z,19.90
2019-06-10T20:28:02.855Z,27.50
2019-06-10T20:30:33.288Z,20.33
2019-06-10T20:33:03.448Z,22.43
2019-06-10T20:35:32.770Z,19.57
2019-06-10T20:38:04.727Z,26.00
2019-06-10T20:40:32.152Z,19.20
2019-06-10T20:43:03.273Z,14.10
2019-06-10T20:45:33.183Z,18.00
2019-06-10T20:48:02.691Z,22.10
2019-06-10T20:50:32.570Z,23.77
2019-06-10T20:53:13.800Z,22.33
2019-06-10T20:55:40.461Z,21.43
2019-06-10T20:58:04.130Z,15.23
2019-06-10T21:00:37.102Z,31.93
2019-06-10T21:03:06.075Z,23.67
2019-06-10T21:05:35.090Z,27.60
2019-06-10T21:08:05.338Z,32.17
2019-06-10T21:10:36.998Z,23.43
2019-06-10T21:13:06.694Z,20.87
2019-06-10T21:15:36.271Z,18.63
2019-06-10T21:18:06.399Z,21.50
2019-06-10T21:20:34.886Z,22.43
2019-06-10T21:23:03.558Z,14.57
2019-06-10T21:25:32.617Z,16.33
2019-06-10T21:28:03.313Z,26.23
2019-06-10T21:30:41.465Z,24.57
2019-06-10T21:33:03.679Z,19.97
2019-06-10T21:35:37.056Z,21.03
2019-06-10T21:38:05.615Z,25.20
2019-06-10T21:40:34.116Z,22.90
2019-06-10T21:43:03.161Z,23.23
2019-06-10T21:45:32.673Z,24.67
2019-06-10T21:48:02.405Z,25.77
2019-06-10T21:50:33.313Z,18.53
2019-06-10T21:53:03.094Z,34.50
2019-06-10T21:55:33.031Z,16.93
2019-06-10T21:58:03.700Z,17.43
2019-06-10T22:00:51.670Z,25.33
2019-06-10T22:03:04.698Z,17.43
2019-06-10T22:05:33.305Z,23.03
2019-06-10T22:08:03.158Z,21.17
2019-06-10T22:10:33.542Z,18.47
2019-06-10T22:13:03.166Z,17.10
2019-06-10T22:15:33.355Z,34.53
2019-06-10T22:18:02.387Z,16.37
2019-06-10T22:20:32.440Z,28.10
2019-06-10T22:23:02.555Z,26.03
2019-06-10T22:25:32.793Z,29.33
2019-06-10T22:28:02.764Z,20.70
2019-06-10T22:30:32.158Z,30.13
2019-06-10T22:33:03.182Z,21.97
2019-06-10T22:35:31.965Z,23.20
2019-06-10T22:38:02.579Z,28.77
2019-06-10T22:40:32.669Z,24.20
2019-06-10T22:43:03.116Z,32.93
2019-06-10T22:45:32.323Z,36.53
2019-06-10T22:48:02.972Z,21.07
2019-06-10T22:50:32.294Z,30.30
2019-06-10T22:53:03.611Z,26.57
2019-06-10T22:55:32.182Z,31.03
2019-06-10T22:58:03.222Z,22.60
2019-06-10T23:00:31.224Z,21.50
2019-06-10T23:02:59.691Z,35.50
2019-06-10T23:05:28.293Z,21.20
2019-06-10T23:07:57.438Z,27.97
2019-06-10T23:10:26.349Z,23.93
2019-06-10T23:12:56.574Z,29.63
2019-06-10T23:15:25.142Z,24.23
2019-06-10T23:17:55.420Z,26.80
2019-06-10T23:20:23.886Z,33.63
2019-06-10T23:22:55.513Z,31.03
2019-06-10T23:25:22.572Z,32.37
2019-06-10T23:27:54.463Z,27.63
2019-06-10T23:30:22.455Z,38.10
2019-06-10T23:32:54.476Z,24.27
2019-06-10T23:35:23.126Z,36.90
2019-06-10T23:37:55.072Z,24.10
2019-06-10T23:40:23.363Z,29.13
2019-06-10T23:42:53.076Z,39.67
2019-06-10T23:45:22.395Z,44.13
2019-06-10T23:47:52.970Z,33.33
2019-06-10T23:50:22.591Z,33.73
2019-06-10T23:52:54.116Z,32.97
2019-06-10T23:55:22.835Z,20.60
2019-06-10T23:57:53.066Z,27.17
